Time;durP1;ratioP1;P1;durP2;ratioP2;P2;SDS_P1;SDS_P2;PMS_P1;PMS_P2;Temp;Humidity;BMP_temperature;BMP_pressure;BME280_temperature;BME280_humidity;BME280_pressure;Samples;Min_cycle;Max_cycle;Signal;HPM_P1;HPM_P2
2021/07/16 00:01:21;;;;;;;1.70;1.27;;;16.70;51.70;;;;;;5033075;28;20900;-69
2021/07/16 00:03:46;;;;;;;1.93;1.17;;;16.70;52.40;;;;;;5031716;28;20860;-71
2021/07/16 00:06:12;;;;;;;3.53;2.00;;;16.60;52.30;;;;;;5032960;28;20418;-70
2021/07/16 00:08:37;;;;;;;2.70;1.90;;;16.60;52.30;;;;;;5031676;28;20183;-70
2021/07/16 00:11:03;;;;;;;1.93;1.50;;;16.50;52.20;;;;;;5032721;28;20195;-71
2021/07/16 00:13:28;;;;;;;2.93;1.40;;;16.50;52.20;;;;;;5030519;28;20199;-70
2021/07/16 00:15:54;;;;;;;4.40;1.43;;;16.40;52.10;;;;;;5032689;28;20255;-69
2021/07/16 00:18:19;;;;;;;4.17;1.90;;;16.30;52.50;;;;;;5032754;28;20199;-69
2021/07/16 00:20:45;;;;;;;2.33;1.60;;;16.20;52.90;;;;;;5031104;28;20667;-70
2021/07/16 00:23:12;;;;;;;2.67;2.23;;;16.10;53.60;;;;;;5032672;28;20203;-69
2021/07/16 00:25:37;;;;;;;1.87;1.43;;;16.00;54.80;;;;;;5031385;28;20187;-70
2021/07/16 00:28:03;;;;;;;3.67;2.30;;;16.00;56.70;;;;;;5032414;28;20414;-70
2021/07/16 00:30:30;;;;;;;10.70;2.20;;;;;;;;;;5032281;28;20676;-70
2021/07/16 00:32:56;;;;;;;4.63;2.43;;;15.80;55.00;;;;;;5031412;28;20194;-70
2021/07/16 00:35:21;;;;;;;3.47;2.53;;;15.70;56.20;;;;;;5031292;28;20786;-69
2021/07/16 00:37:47;;;;;;;2.13;1.70;;;15.60;56.30;;;;;;5032425;28;20804;-70
2021/07/16 00:40:13;;;;;;;3.00;2.20;;;15.50;56.20;;;;;;5032150;28;20538;-70
2021/07/16 00:42:40;;;;;;;2.10;1.90;;;15.50;57.70;;;;;;5032240;28;20205;-70
2021/07/16 00:45:08;;;;;;;2.50;1.80;;;15.40;57.80;;;;;;5032000;28;20418;-70
2021/07/16 00:47:34;;;;;;;3.60;1.90;;;15.30;58.20;;;;;;5032282;28;20902;-71
2021/07/16 00:49:59;;;;;;;3.63;2.60;;;15.30;58.60;;;;;;5031898;28;20421;-70
2021/07/16 00:52:25;;;;;;;4.60;2.10;;;15.30;58.70;;;;;;5031748;28;20287;-69
2021/07/16 00:54:52;;;;;;;14.03;2.17;;;15.20;58.50;;;;;;5032122;28;20176;-70
2021/07/16 00:57:18;;;;;;;2.37;1.90;;;15.30;58.70;;;;;;5032044;28;20172;-70
2021/07/16 00:59:44;;;;;;;2.90;1.97;;;15.20;58.50;;;;;;5033860;28;20413;-70
2021/07/16 01:02:12;;;;;;;4.13;2.27;;;15.20;58.80;;;;;;5031857;28;20883;-70
2021/07/16 01:04:37;;;;;;;2.40;1.80;;;15.10;58.90;;;;;;5030593;28;20414;-70
2021/07/16 01:07:04;;;;;;;3.40;1.67;;;15.10;59.20;;;;;;5032117;28;20486;-69
2021/07/16 01:09:30;;;;;;;5.60;2.20;;;15.10;59.30;;;;;;5031759;28;20210;-69
2021/07/16 01:11:56;;;;;;;3.27;2.40;;;15.10;60.30;;;;;;5030451;28;20501;-69
2021/07/16 01:14:21;;;;;;;3.70;2.47;;;15.20;59.60;;;;;;5031850;28;20205;-69
2021/07/16 01:16:47;;;;;;;3.10;1.70;;;15.10;59.60;;;;;;5031854;28;20184;-69
2021/07/16 01:19:22;;;;;;;2.50;2.30;;;15.10;60.40;;;;;;5031602;28;20255;-69
2021/07/16 01:21:50;;;;;;;3.27;2.10;;;15.30;61.00;;;;;;5031985;28;20670;-70
2021/07/16 01:24:16;;;;;;;2.07;1.87;;;15.40;60.70;;;;;;5031334;28;20813;-70
2021/07/16 01:26:42;;;;;;;5.13;2.40;;;15.50;60.50;;;;;;5031455;28;20919;-70
2021/07/16 01:29:12;;;;;;;4.20;2.20;;;15.50;59.50;;;;;;5029995;28;20431;-69
2021/07/16 01:31:40;;;;;;;2.63;2.30;;;16.70;60.60;;;;;;5031684;28;20633;-70
2021/07/16 01:34:06;;;;;;;2.43;2.23;;;15.70;59.50;;;;;;5031347;28;20468;-71
2021/07/16 01:36:32;;;;;;;3.40;2.00;;;15.80;59.50;;;;;;5031337;28;20469;-70
2021/07/16 01:38:57;;;;;;;2.27;1.97;;;15.80;59.00;;;;;;5031166;28;20183;-69
2021/07/16 01:41:23;;;;;;;1.90;1.67;;;15.90;58.40;;;;;;5031324;28;20179;-70
2021/07/16 01:43:48;;;;;;;2.73;1.93;;;15.90;57.80;;;;;;5031093;28;20194;-69
2021/07/16 01:46:14;;;;;;;2.57;1.63;;;16.00;57.00;;;;;;5031253;28;20414;-71
2021/07/16 01:48:39;;;;;;;2.03;1.83;;;16.00;56.70;;;;;;5031323;28;20189;-70
2021/07/16 01:51:05;;;;;;;2.23;1.50;;;16.10;55.80;;;;;;5031001;28;20287;-70
2021/07/16 01:53:31;;;;;;;2.03;1.40;;;16.20;55.10;;;;;;5031123;28;20207;-70
2021/07/16 01:55:57;;;;;;;3.17;1.73;;;16.20;54.60;;;;;;5031161;28;20240;-69
2021/07/16 01:58:22;;;;;;;2.30;1.70;;;16.20;54.60;;;;;;5031144;28;20521;-70
2021/07/16 02:00:49;;;;;;;3.70;2.00;;;16.20;54.60;;;;;;5030787;28;20441;-69
2021/07/16 02:03:17;;;;;;;1.93;1.27;;;16.20;54.40;;;;;;5031149;28;20282;-69
2021/07/16 02:05:45;;;;;;;3.00;2.10;;;16.30;54.40;;;;;;5031090;28;20414;-70
2021/07/16 02:08:17;;;;;;;4.43;2.17;;;16.30;54.50;;;;;;5029770;28;20429;-70
2021/07/16 02:10:55;;;;;;;2.80;2.00;;;16.30;54.30;;;;;;5030847;28;20493;-71
2021/07/16 02:13:21;;;;;;;2.73;2.50;;;16.30;54.00;;;;;;5030980;28;20969;-70
2021/07/16 02:15:48;;;;;;;3.00;2.77;;;16.30;54.40;;;;;;5030887;28;20425;-70
2021/07/16 02:18:18;;;;;;;3.03;2.63;;;16.30;54.50;;;;;;5031021;28;20999;-69
2021/07/16 02:20:44;;;;;;;3.30;2.57;;;16.30;55.10;;;;;;5030739;28;20413;-70
2021/07/16 02:23:14;;;;;;;4.23;2.30;;;16.30;55.40;;;;;;5031005;28;20472;-70
2021/07/16 02:25:40;;;;;;;4.33;3.37;;;16.40;55.20;;;;;;5030964;28;20410;-70
2021/07/16 02:28:27;;;;;;;5.63;2.83;;;16.40;55.10;;;;;;5029427;28;20522;-70
2021/07/16 02:30:53;;;;;;;3.83;3.30;;;16.40;54.80;;;;;;5030596;28;21001;-70
2021/07/16 02:33:21;;;;;;;2.93;2.57;;;16.50;54.60;;;;;;5030748;28;20426;-70
2021/07/16 02:35:46;;;;;;;10.40;2.73;;;16.50;54.50;;;;;;5030983;28;20177;-70
2021/07/16 02:38:13;;;;;;;6.40;3.63;;;16.50;54.30;;;;;;5034590;28;20406;-70
2021/07/16 02:40:39;;;;;;;2.93;2.63;;;16.40;54.50;;;;;;5035164;28;20179;-70
2021/07/16 02:43:05;;;;;;;2.37;2.17;;;16.50;54.10;;;;;;5033260;28;20438;-70
2021/07/16 02:45:31;;;;;;;2.97;2.20;;;16.40;53.90;;;;;;5034524;28;20446;-69
2021/07/16 02:47:58;;;;;;;4.73;2.67;;;16.40;54.20;;;;;;5034543;28;20437;-70
2021/07/16 02:50:30;;;;;;;4.00;3.17;;;16.40;54.40;;;;;;5032899;28;20417;-70
2021/07/16 02:52:56;;;;;;;8.53;3.13;;;16.50;54.20;;;;;;5034296;28;20458;-70
2021/07/16 02:55:22;;;;;;;3.47;2.73;;;16.40;54.10;;;;;;5034483;28;20761;-71
2021/07/16 02:57:49;;;;;;;4.37;3.20;;;16.40;54.10;;;;;;5034196;28;20416;-70
2021/07/16 03:00:18;;;;;;;2.20;2.00;;;16.40;54.20;;;;;;5034406;28;20747;-70
2021/07/16 03:02:45;;;;;;;3.37;3.07;;;16.50;54.20;;;;;;5034145;28;20449;-70
2021/07/16 03:05:15;;;;;;;4.47;3.03;;;16.50;54.90;;;;;;5032886;28;20414;-70
2021/07/16 03:07:41;;;;;;;6.27;3.10;;;16.50;54.30;;;;;;5034181;28;20402;-70
2021/07/16 03:10:09;;;;;;;7.60;2.73;;;16.40;53.90;;;;;;5033790;28;20426;-70
2021/07/16 03:12:38;;;;;;;3.00;2.70;;;16.30;54.70;;;;;;5033920;28;20465;-70
2021/07/16 03:15:10;;;;;;;3.80;3.13;;;16.40;54.60;;;;;;5033958;28;20420;-70
2021/07/16 03:17:37;;;;;;;2.83;2.33;;;16.40;54.60;;;;;;5033939;28;20422;-71
2021/07/16 03:20:06;;;;;;;3.10;2.80;;;16.40;54.60;;;;;;5033965;28;20406;-71
2021/07/16 03:22:31;;;;;;;3.40;3.00;;;16.40;54.30;;;;;;5033887;28;20782;-70
2021/07/16 03:24:57;;;;;;;7.43;3.30;;;16.40;54.40;;;;;;5032907;28;20418;-70
2021/07/16 03:27:22;;;;;;;3.00;2.70;;;16.30;55.00;;;;;;5033676;28;20258;-70
2021/07/16 03:29:48;;;;;;;3.77;3.37;;;16.20;55.30;;;;;;5033426;28;20257;-71
2021/07/16 03:32:13;;;;;;;5.80;3.10;;;16.20;55.60;;;;;;5033913;28;20217;-70
2021/07/16 03:34:39;;;;;;;4.30;3.23;;;16.10;56.20;;;;;;5032544;28;20641;-70
2021/07/16 03:37:04;;;;;;;11.63;4.57;;;16.10;56.60;;;;;;5033455;28;20229;-70
2021/07/16 03:39:30;;;;;;;5.80;3.20;;;16.20;56.70;;;;;;5033654;28;20545;-71
2021/07/16 03:41:56;;;;;;;4.87;4.37;;;16.20;56.40;;;;;;5034617;28;20309;-70
2021/07/16 03:44:21;;;;;;;5.73;3.80;;;16.20;56.40;;;;;;5033387;28;20179;-69
2021/07/16 03:46:47;;;;;;;5.27;3.57;;;16.20;56.40;;;;;;5033629;28;20199;-70
2021/07/16 03:49:12;;;;;;;7.60;4.00;;;16.20;56.50;;;;;;5033229;28;20200;-70
2021/07/16 03:51:38;;;;;;;4.53;3.53;;;16.20;56.70;;;;;;5033378;28;20292;-70
2021/07/16 03:54:05;;;;;;;4.17;3.50;;;16.20;56.00;;;;;;5032961;28;20214;-70
2021/07/16 03:56:31;;;;;;;4.20;3.47;;;16.20;56.50;;;;;;5033027;28;20171;-70
2021/07/16 03:58:56;;;;;;;5.47;4.17;;;16.20;56.00;;;;;;5032696;28;20420;-71
2021/07/16 04:01:22;;;;;;;5.50;4.23;;;16.20;56.30;;;;;;5033306;28;20429;-71
2021/07/16 04:03:47;;;;;;;4.80;3.90;;;16.30;56.70;;;;;;5033047;28;20278;-71
2021/07/16 04:06:13;;;;;;;5.60;4.23;;;16.20;56.10;;;;;;5033451;28;20181;-70
2021/07/16 04:08:39;;;;;;;3.27;3.00;;;16.20;56.40;;;;;;5031585;28;20249;-69
2021/07/16 04:11:05;;;;;;;4.07;3.67;;;16.20;56.80;;;;;;5032628;28;20471;-70
2021/07/16 04:13:31;;;;;;;4.90;3.87;;;16.30;56.60;;;;;;5032815;28;20501;-71
2021/07/16 04:15:57;;;;;;;4.70;4.20;;;16.30;56.20;;;;;;5033871;28;20179;-71
2021/07/16 04:18:23;;;;;;;10.93;3.93;;;16.40;55.60;;;;;;5031525;28;20414;-71
2021/07/16 04:20:48;;;;;;;9.50;5.00;;;16.30;55.50;;;;;;5032681;28;20648;-71
2021/07/16 04:23:14;;;;;;;5.77;5.17;;;16.30;55.40;;;;;;5032728;28;20195;-71
2021/07/16 04:25:40;;;;;;;6.23;3.13;;;16.40;55.70;;;;;;5032790;28;20210;-72
2021/07/16 04:28:05;;;;;;;6.10;3.60;;;16.40;55.30;;;;;;5031263;28;20179;-71
2021/07/16 04:30:33;;;;;;;4.00;3.60;;;16.40;54.80;;;;;;5031096;28;20179;-71
2021/07/16 04:33:01;;;;;;;6.87;4.70;;;16.40;55.10;;;;;;5032547;28;20609;-71
2021/07/16 04:35:28;;;;;;;9.13;4.10;;;16.50;54.50;;;;;;5031172;28;20414;-71
2021/07/16 04:37:53;;;;;;;3.90;3.43;;;16.50;54.50;;;;;;5032764;28;20453;-71
2021/07/16 04:40:22;;;;;;;3.57;3.20;;;16.50;54.20;;;;;;5032310;28;20449;-71
2021/07/16 04:42:53;;;;;;;4.23;3.80;;;16.60;53.90;;;;;;5033594;28;20306;-71
2021/07/16 04:45:19;;;;;;;4.37;3.40;;;16.60;53.80;;;;;;5032423;28;20406;-71
2021/07/16 04:47:45;;;;;;;3.63;3.20;;;16.70;53.40;;;;;;5032301;28;20762;-71
2021/07/16 04:50:12;;;;;;;3.00;2.50;;;16.70;53.30;;;;;;5031921;28;20421;-71
2021/07/16 04:52:43;;;;;;;2.23;2.03;;;16.80;53.30;;;;;;5030461;28;21006;-71
2021/07/16 04:55:09;;;;;;;3.73;3.27;;;16.80;53.20;;;;;;5030641;28;20418;-71
2021/07/16 04:57:35;;;;;;;4.23;2.90;;;16.80;52.90;;;;;;5032343;28;20448;-71
2021/07/16 05:00:03;;;;;;;4.13;3.10;;;16.80;52.60;;;;;;5031426;28;20410;-71
2021/07/16 05:02:31;;;;;;;4.20;3.57;;;16.90;52.50;;;;;;5032607;28;20278;-72
2021/07/16 05:04:57;;;;;;;4.00;3.10;;;16.90;52.50;;;;;;5031802;28;20410;-71
2021/07/16 05:07:22;;;;;;;4.40;2.83;;;17.00;52.60;;;;;;5031687;28;20440;-72
2021/07/16 05:09:48;;;;;;;2.90;2.60;;;17.00;52.30;;;;;;5031539;28;20182;-70
2021/07/16 05:12:14;;;;;;;3.97;3.33;;;17.00;51.70;;;;;;5031519;28;20215;-72
2021/07/16 05:14:39;;;;;;;3.83;3.43;;;17.10;50.90;;;;;;5030398;28;20175;-71
2021/07/16 05:17:05;;;;;;;4.53;2.80;;;17.10;50.70;;;;;;5030437;28;20256;-71
2021/07/16 05:19:31;;;;;;;4.13;3.73;;;17.10;50.20;;;;;;5031454;28;20171;-72
2021/07/16 05:21:57;;;;;;;3.43;2.30;;;17.00;50.40;;;;;;5030467;28;20179;-71
2021/07/16 05:24:23;;;;;;;3.90;3.53;;;16.90;50.90;;;;;;5031642;28;20253;-72
2021/07/16 05:26:48;;;;;;;3.00;2.60;;;16.90;51.10;;;;;;5031533;28;20441;-71
2021/07/16 05:29:14;;;;;;;3.93;2.87;;;17.00;51.20;;;;;;5032007;28;20191;-72
2021/07/16 05:31:39;;;;;;;3.30;2.60;;;17.00;50.90;;;;;;5031270;28;20571;-71
2021/07/16 05:34:05;;;;;;;3.43;3.13;;;17.00;51.10;;;;;;5031547;28;20555;-72
2021/07/16 05:36:30;;;;;;;3.60;2.90;;;17.00;51.20;;;;;;5031492;28;20175;-71
2021/07/16 05:39:02;;;;;;;5.03;3.53;;;17.00;50.80;;;;;;5029873;28;20175;-72
2021/07/16 05:41:27;;;;;;;5.70;3.40;;;17.00;50.60;;;;;;5033767;28;20176;-72
2021/07/16 05:43:53;;;;;;;3.67;3.13;;;17.10;50.60;;;;;;5031137;28;21023;-71
2021/07/16 05:46:19;;;;;;;4.23;3.70;;;17.00;50.10;;;;;;5031134;28;20250;-71
2021/07/16 05:48:46;;;;;;;3.50;3.20;;;17.00;50.70;;;;;;5031234;28;20181;-74
2021/07/16 05:51:12;;;;;;;5.80;3.90;;;16.90;50.80;;;;;;5031181;28;20628;-72
2021/07/16 05:53:37;;;;;;;3.90;3.40;;;16.90;51.50;;;;;;5031523;28;20473;-72
2021/07/16 05:56:03;;;;;;;4.87;3.80;;;17.00;51.30;;;;;;5033359;28;20167;-72
2021/07/16 05:58:29;;;;;;;4.03;3.63;;;17.00;51.20;;;;;;5031513;28;20171;-71
2021/07/16 06:00:55;;;;;;;4.33;3.90;;;16.90;50.80;;;;;;5030875;28;20745;-71
2021/07/16 06:03:21;;;;;;;3.50;3.00;;;16.90;51.30;;;;;;5032544;28;20281;-71
2021/07/16 06:05:46;;;;;;;10.20;4.30;;;16.90;51.90;;;;;;5030280;28;20835;-71
2021/07/16 06:08:12;;;;;;;5.03;4.17;;;16.90;51.50;;;;;;5031401;28;20190;-71
2021/07/16 06:10:37;;;;;;;6.90;4.40;;;16.90;51.40;;;;;;5031290;28;20229;-72
2021/07/16 06:13:03;;;;;;;6.40;4.60;;;16.90;52.20;;;;;;5033437;28;20572;-71
2021/07/16 06:15:29;;;;;;;4.73;3.37;;;17.00;51.80;;;;;;5034043;28;20182;-71
2021/07/16 06:17:55;;;;;;;5.30;4.30;;;17.00;51.10;;;;;;5035806;28;20177;-71
2021/07/16 06:20:20;;;;;;;5.37;3.90;;;17.00;50.80;;;;;;5034933;28;20409;-71
2021/07/16 06:22:46;;;;;;;4.93;3.50;;;17.00;50.70;;;;;;5034845;28;20211;-71
2021/07/16 06:25:13;;;;;;;12.77;4.40;;;17.00;51.10;;;;;;5034870;28;20180;-71
2021/07/16 06:27:39;;;;;;;6.60;3.90;;;17.00;51.20;;;;;;5034759;28;20534;-71
2021/07/16 06:30:07;;;;;;;4.47;4.00;;;17.20;51.30;;;;;;5035126;28;20410;-71
2021/07/16 06:32:32;;;;;;;8.07;3.83;;;17.20;50.20;;;;;;5034568;28;20206;-71
2021/07/16 06:34:58;;;;;;;4.83;3.53;;;17.30;50.10;;;;;;5034486;28;20414;-72
2021/07/16 06:37:23;;;;;;;7.93;4.57;;;17.30;49.80;;;;;;5034709;28;20177;-72
2021/07/16 06:39:49;;;;;;;20.87;5.03;;;17.40;49.60;;;;;;5033335;28;20190;-71
2021/07/16 06:42:14;;;;;;;5.60;4.93;;;17.50;49.60;;;;;;5034370;28;20199;-72
2021/07/16 06:44:40;;;;;;;7.63;5.50;;;17.60;49.20;;;;;;5034619;28;20520;-72
2021/07/16 06:47:05;;;;;;;6.00;4.63;;;17.50;49.10;;;;;;5034545;28;20214;-71
2021/07/16 06:49:31;;;;;;;16.70;6.50;;;17.60;49.30;;;;;;5033721;28;20218;-71
2021/07/16 06:51:58;;;;;;;4.60;4.20;;;17.60;48.50;;;;;;5034365;28;20696;-71
2021/07/16 06:54:24;;;;;;;6.10;4.90;;;17.70;49.30;;;;;;5033116;28;20190;-71
2021/07/16 06:56:50;;;;;;;6.23;5.63;;;18.00;48.90;;;;;;5034922;28;20406;-72
2021/07/16 06:59:16;;;;;;;6.17;4.97;;;18.40;48.00;;;;;;5034374;28;20416;-72
2021/07/16 07:01:42;;;;;;;5.80;4.50;;;18.80;47.10;;;;;;5035349;28;20496;-71
2021/07/16 07:04:07;;;;;;;7.13;4.20;;;19.20;43.80;;;;;;5033989;28;20206;-71
2021/07/16 07:06:33;;;;;;;6.17;4.53;;;19.40;42.20;;;;;;5032807;28;20621;-71
2021/07/16 07:08:58;;;;;;;5.97;4.40;;;19.70;40.30;;;;;;5034826;28;20186;-72
2021/07/16 07:11:24;;;;;;;5.83;5.17;;;19.90;39.70;;;;;;5034174;28;20234;-71
2021/07/16 07:13:49;;;;;;;6.43;5.10;;;19.90;39.80;;;;;;5035111;28;20195;-71
2021/07/16 07:16:16;;;;;;;4.47;4.07;;;20.10;40.90;;;;;;5033989;28;20183;-72
2021/07/16 07:18:42;;;;;;;4.53;3.97;;;20.20;40.00;;;;;;5035459;28;20258;-72
2021/07/16 07:21:08;;;;;;;6.47;4.93;;;20.30;40.10;;;;;;5050056;28;20852;-72
2021/07/16 07:23:34;;;;;;;6.20;4.87;;;20.50;40.30;;;;;;5036833;28;20437;-72
2021/07/16 07:25:59;;;;;;;6.50;5.33;;;20.40;37.30;;;;;;5034719;28;20183;-72
2021/07/16 07:28:25;;;;;;;6.73;5.60;;;20.60;37.30;;;;;;5035023;28;20235;-72
2021/07/16 07:30:50;;;;;;;7.13;5.43;;;20.60;35.50;;;;;;5034318;28;20221;-72
2021/07/16 07:33:16;;;;;;;6.67;6.07;;;20.60;35.10;;;;;;5034105;28;20537;-72
2021/07/16 07:35:41;;;;;;;4.30;3.90;;;20.30;35.90;;;;;;5034139;28;20633;-72
2021/07/16 07:38:12;;;;;;;7.00;5.23;;;20.20;36.90;;;;;;5034317;28;20262;-72
2021/07/16 07:40:38;;;;;;;5.87;5.37;;;19.90;37.60;;;;;;5033143;28;20176;-72
2021/07/16 07:43:05;;;;;;;5.90;4.93;;;19.80;37.80;;;;;;5035398;28;20438;-72
2021/07/16 07:45:31;;;;;;;6.37;5.20;;;19.80;38.80;;;;;;5050996;28;20172;-72
2021/07/16 07:47:57;;;;;;;7.37;6.40;;;19.50;38.30;;;;;;5051198;28;20413;-72
2021/07/16 07:50:23;;;;;;;6.47;5.83;;;19.10;39.00;;;;;;5050421;28;20414;-72
2021/07/16 07:52:50;;;;;;;8.53;6.90;;;19.00;41.00;;;;;;5049653;28;20461;-72
2021/07/16 07:55:17;;;;;;;6.77;5.30;;;19.30;39.90;;;;;;5049097;28;20175;-72
2021/07/16 07:57:42;;;;;;;6.93;6.27;;;19.60;42.40;;;;;;5046167;28;20418;-72
2021/07/16 08:00:11;;;;;;;7.03;6.43;;;19.90;41.60;;;;;;5050350;28;20425;-72
2021/07/16 08:02:38;;;;;;;7.70;6.20;;;20.20;40.80;;;;;;5049821;28;20206;-72
2021/07/16 08:05:04;;;;;;;10.27;5.83;;;20.40;41.60;;;;;;5048819;28;20477;-72
2021/07/16 08:07:30;;;;;;;6.43;5.93;;;20.70;42.80;;;;;;5047385;28;20422;-72
2021/07/16 08:09:55;;;;;;;6.40;5.80;;;20.80;41.10;;;;;;5051119;28;20425;-69
2021/07/16 08:12:21;;;;;;;5.97;5.30;;;21.10;42.90;;;;;;5049456;28;20215;-70
2021/07/16 08:14:47;;;;;;;5.37;4.97;;;;;;;;;;5040483;28;20239;-70
2021/07/16 08:17:12;;;;;;;5.70;5.20;;;21.80;41.40;;;;;;5033040;28;20185;-70
2021/07/16 08:19:38;;;;;;;6.97;5.50;;;22.00;44.60;;;;;;5033138;28;20410;-69
2021/07/16 08:22:04;;;;;;;8.80;5.93;;;22.20;43.80;;;;;;5033124;28;20593;-70
2021/07/16 08:24:29;;;;;;;5.53;4.47;;;22.30;34.80;;;;;;5032937;28;20664;-70
2021/07/16 08:26:55;;;;;;;8.80;7.20;;;22.30;31.70;;;;;;5032797;28;20640;-71
2021/07/16 08:29:21;;;;;;;6.23;5.50;;;22.10;35.60;;;;;;5032205;28;20524;-70
2021/07/16 08:31:46;;;;;;;8.70;5.77;;;21.70;30.70;;;;;;5032371;28;20206;-70
2021/07/16 08:34:15;;;;;;;6.93;6.27;;;21.50;31.90;;;;;;5031865;28;20195;-70
2021/07/16 08:36:41;;;;;;;7.80;5.80;;;21.40;46.40;;;;;;5032570;28;20227;-70
2021/07/16 08:39:06;;;;;;;7.53;5.60;;;21.20;41.00;;;;;;5032209;28;20445;-69
2021/07/16 08:41:33;;;;;;;7.77;6.37;;;21.00;41.60;;;;;;5031043;28;20211;-70
2021/07/16 08:43:59;;;;;;;7.13;6.43;;;20.80;43.70;;;;;;5032379;28;20203;-70
2021/07/16 08:46:24;;;;;;;8.40;5.63;;;20.60;45.60;;;;;;5032380;28;20830;-70
2021/07/16 08:48:51;;;;;;;8.80;4.97;;;20.50;43.70;;;;;;5031903;28;20210;-70
2021/07/16 08:51:19;;;;;;;5.17;4.67;;;20.70;47.40;;;;;;5030956;28;20215;-70
2021/07/16 08:53:48;;;;;;;7.70;5.20;;;;;;;;;;5031966;28;20587;-70
2021/07/16 08:56:15;;;;;;;5.27;4.77;;;;;;;;;;5032181;28;20493;-70
2021/07/16 08:58:41;;;;;;;5.90;5.30;;;21.40;73.00;;;;;;5031786;28;20961;-70
2021/07/16 09:01:07;;;;;;;6.00;5.40;;;;;;;;;;5031544;28;20418;-69
2021/07/16 09:03:33;;;;;;;9.40;4.83;;;;;;;;;;5031895;28;20231;-71
2021/07/16 09:05:59;;;;;;;10.40;4.90;;;;;;;;;;5031832;28;20445;-70
2021/07/16 09:08:25;;;;;;;4.47;4.00;;;;;;;;;;5031706;28;20418;-70
2021/07/16 09:10:57;;;;;;;4.63;4.23;;;21.70;46.90;;;;;;5031424;28;20461;-70
2021/07/16 09:13:25;;;;;;;6.93;4.97;;;21.70;43.20;;;;;;5030395;28;20441;-70
2021/07/16 09:15:53;;;;;;;4.40;3.73;;;21.40;46.80;;;;;;5031900;28;20414;-70
2021/07/16 09:18:22;;;;;;;5.10;4.63;;;21.30;47.30;;;;;;5034872;28;20442;-70
2021/07/16 09:21:10;;;;;;;8.37;4.60;;;;;;;;;;5046591;28;20477;-70
2021/07/16 09:23:44;;;;;;;5.80;4.97;;;21.30;29.90;;;;;;5033776;28;20441;-70
2021/07/16 09:26:23;;;;;;;7.00;5.87;;;21.40;31.20;;;;;;5031776;28;20513;-70
2021/07/16 09:28:50;;;;;;;4.50;3.90;;;21.50;30.50;;;;;;5031621;28;20422;-70
2021/07/16 09:31:27;;;;;;;4.70;3.90;;;21.80;30.90;;;;;;5031670;28;21025;-71
2021/07/16 09:34:01;;;;;;;5.43;4.93;;;22.10;30.60;;;;;;5031426;28;20425;-70
2021/07/16 09:36:33;;;;;;;6.80;4.30;;;22.40;29.70;;;;;;5030146;28;20414;-71
2021/07/16 09:39:08;;;;;;;3.80;3.50;;;22.60;29.00;;;;;;5031263;28;20421;-70
2021/07/16 09:41:44;;;;;;;5.67;5.17;;;22.90;28.30;;;;;;5031659;28;20925;-70
2021/07/16 09:44:10;;;;;;;6.93;5.13;;;23.40;31.30;;;;;;5029938;28;20458;-70
2021/07/16 09:46:36;;;;;;;4.70;4.23;;;23.50;31.30;;;;;;5029767;28;20513;-70
2021/07/16 09:49:12;;;;;;;5.60;5.10;;;23.40;44.50;;;;;;5031100;28;20185;-70
2021/07/16 09:51:43;;;;;;;4.53;3.90;;;23.90;52.30;;;;;;5029668;28;20238;-70
2021/07/16 09:54:12;;;;;;;4.10;3.80;;;24.50;56.80;;;;;;5031234;28;20890;-70
2021/07/16 09:56:38;;;;;;;3.50;3.20;;;24.60;53.90;;;;;;5032321;28;20421;-71
2021/07/16 09:59:06;;;;;;;4.20;3.80;;;;;;;;;;5030701;28;20828;-70
2021/07/16 10:01:33;;;;;;;3.93;3.53;;;23.40;22.80;;;;;;5031320;28;20410;-70
2021/07/16 10:04:00;;;;;;;3.63;3.00;;;22.80;24.20;;;;;;5030807;28;20442;-71
2021/07/16 10:06:28;;;;;;;3.87;3.57;;;22.30;26.50;;;;;;5031045;28;20908;-70
2021/07/16 10:08:56;;;;;;;4.30;3.90;;;22.40;26.90;;;;;;5030698;28;20422;-70
2021/07/16 10:11:29;;;;;;;4.27;3.97;;;22.20;27.20;;;;;;5030725;28;20507;-71
2021/07/16 10:13:57;;;;;;;4.27;3.80;;;22.00;28.10;;;;;;5031141;28;20437;-70
2021/07/16 10:16:23;;;;;;;5.43;4.90;;;21.90;28.30;;;;;;5030730;28;20411;-70
2021/07/16 10:18:51;;;;;;;4.90;4.50;;;21.80;28.50;;;;;;5030424;28;20421;-71
2021/07/16 10:21:16;;;;;;;5.43;4.50;;;21.80;28.20;;;;;;5030786;28;20186;-70
2021/07/16 10:23:42;;;;;;;5.10;4.50;;;21.90;28.80;;;;;;5030737;28;20434;-71
2021/07/16 10:26:10;;;;;;;5.13;4.20;;;22.20;27.70;;;;;;5030745;28;20207;-70
2021/07/16 10:28:41;;;;;;;4.87;4.33;;;22.30;27.50;;;;;;5030511;28;20187;-71
2021/07/16 10:31:37;;;;;;;4.53;3.90;;;22.50;27.40;;;;;;5030279;28;20537;-70
2021/07/16 10:34:16;;;;;;;4.00;3.60;;;22.50;27.00;;;;;;5030618;28;21054;-71
2021/07/16 10:36:50;;;;;;;4.33;3.93;;;22.70;27.10;;;;;;5029103;28;20426;-70
2021/07/16 10:39:37;;;;;;;4.30;3.90;;;22.90;26.30;;;;;;5030334;28;20413;-71
2021/07/16 10:42:31;;;;;;;5.63;3.77;;;23.50;24.60;;;;;;5030467;28;20508;-70
2021/07/16 10:44:58;;;;;;;4.77;4.37;;;23.50;24.50;;;;;;5029123;28;20483;-70
2021/07/16 10:47:39;;;;;;;4.40;4.00;;;23.70;24.30;;;;;;5030236;28;20813;-70
2021/07/16 10:50:32;;;;;;;4.43;4.13;;;24.10;23.70;;;;;;5030181;28;20424;-70
2021/07/16 10:52:58;;;;;;;5.47;4.97;;;24.00;23.30;;;;;;5030142;28;20473;-70
2021/07/16 10:55:32;;;;;;;4.83;4.40;;;24.00;23.30;;;;;;5030395;28;20446;-68
2021/07/16 10:58:20;;;;;;;4.30;4.00;;;23.60;23.40;;;;;;5037761;28;20761;-72
2021/07/16 11:00:52;;;;;;;3.60;3.40;;;23.20;23.70;;;;;;5039895;28;20780;-72
2021/07/16 11:03:20;;;;;;;3.90;3.50;;;23.00;24.00;;;;;;5040381;28;20811;-72
2021/07/16 11:05:45;;;;;;;5.60;4.60;;;23.00;23.80;;;;;;5040281;28;20414;-72
2021/07/16 11:08:35;;;;;;;4.20;3.90;;;23.30;23.70;;;;;;5039250;28;20414;-72
2021/07/16 11:11:07;;;;;;;4.50;4.20;;;23.70;23.50;;;;;;5040787;28;20283;-72
2021/07/16 11:13:45;;;;;;;4.80;4.50;;;24.00;22.10;;;;;;5040076;28;20446;-72
2021/07/16 11:16:29;;;;;;;5.23;4.67;;;24.20;21.90;;;;;;5040459;28;20467;-71
2021/07/16 11:19:17;;;;;;;4.83;4.53;;;24.60;22.10;;;;;;5038329;28;20441;-72
2021/07/16 11:21:42;;;;;;;5.33;4.30;;;24.90;19.90;;;;;;5038564;28;20472;-71
2021/07/16 11:24:31;;;;;;;4.03;3.83;;;24.50;21.30;;;;;;5039845;28;20927;-71
2021/07/16 11:27:00;;;;;;;4.67;4.37;;;24.50;19.90;;;;;;5039043;28;20179;-72
2021/07/16 11:29:42;;;;;;;5.60;5.13;;;24.50;21.10;;;;;;5038430;28;20414;-72
2021/07/16 11:32:21;;;;;;;7.93;5.00;;;24.40;21.60;;;;;;5038872;28;20466;-72
2021/07/16 11:34:50;;;;;;;5.33;4.83;;;24.00;21.90;;;;;;5040177;28;20863;-72
2021/07/16 11:37:35;;;;;;;8.60;5.50;;;24.10;21.40;;;;;;5037868;28;20418;-72
2021/07/16 11:40:05;;;;;;;4.97;4.57;;;24.10;22.10;;;;;;5040072;28;20429;-71
2021/07/16 11:42:32;;;;;;;4.67;4.47;;;23.90;22.00;;;;;;5039597;28;20437;-72
2021/07/16 11:44:58;;;;;;;5.10;4.80;;;24.10;21.20;;;;;;5039038;28;20938;-72
2021/07/16 11:47:26;;;;;;;5.20;4.80;;;24.50;20.70;;;;;;5039169;28;20417;-71
2021/07/16 11:49:59;;;;;;;5.70;5.40;;;24.90;19.90;;;;;;5038959;28;20414;-72
2021/07/16 11:52:35;;;;;;;5.87;5.57;;;25.00;20.00;;;;;;5037749;28;20567;-71
2021/07/16 11:55:09;;;;;;;5.53;5.23;;;25.00;19.60;;;;;;5032966;28;20409;-71
2021/07/16 11:57:36;;;;;;;5.70;5.40;;;24.70;19.80;;;;;;5032825;28;20425;-70
2021/07/16 12:00:08;;;;;;;5.90;5.50;;;24.90;19.90;;;;;;5032579;28;20719;-70
2021/07/16 12:02:34;;;;;;;5.70;5.40;;;24.70;20.40;;;;;;5031439;28;20495;-72
2021/07/16 12:04:59;;;;;;;5.60;5.30;;;25.00;20.00;;;;;;5032584;28;20426;-71
2021/07/16 12:07:26;;;;;;;5.87;5.57;;;25.20;20.10;;;;;;5032575;28;20612;-72
2021/07/16 12:09:51;;;;;;;6.20;5.80;;;25.40;19.80;;;;;;5031020;28;20172;-70
2021/07/16 12:12:20;;;;;;;6.73;6.33;;;25.20;19.50;;;;;;5031106;28;20489;-70
2021/07/16 12:14:53;;;;;;;6.30;5.90;;;25.00;19.10;;;;;;5032493;28;20179;-69
2021/07/16 12:17:23;;;;;;;5.57;5.27;;;25.20;19.50;;;;;;5032452;28;20418;-70
2021/07/16 12:19:49;;;;;;;6.20;5.90;;;25.30;20.10;;;;;;5032301;28;20501;-70
2021/07/16 12:22:18;;;;;;;5.80;5.50;;;25.20;20.10;;;;;;5032340;28;20442;-70
2021/07/16 12:24:43;;;;;;;5.30;5.00;;;24.60;20.60;;;;;;5032350;28;20788;-71
2021/07/16 12:27:12;;;;;;;5.90;5.60;;;24.00;21.20;;;;;;5032251;28;20444;-70
2021/07/16 12:29:37;;;;;;;6.10;5.47;;;23.80;21.30;;;;;;5030639;28;20266;-70
2021/07/16 12:32:07;;;;;;;6.07;5.57;;;23.70;21.40;;;;;;5032090;28;20838;-70
2021/07/16 12:34:33;;;;;;;6.33;6.00;;;24.00;20.20;;;;;;5030843;28;20425;-69
2021/07/16 12:37:16;;;;;;;6.00;5.70;;;24.30;25.90;;;;;;5032082;28;20410;-71
2021/07/16 12:39:44;;;;;;;6.63;6.33;;;24.40;25.20;;;;;;5032080;28;20410;-74
2021/07/16 12:42:18;;;;;;;6.30;6.00;;;24.30;24.40;;;;;;5032037;28;20629;-70
2021/07/16 12:45:04;;;;;;;7.17;6.67;;;24.50;25.60;;;;;;5032387;28;20442;-71
2021/07/16 12:47:30;;;;;;;6.77;5.40;;;24.50;18.40;;;;;;5032340;28;20437;-70
2021/07/16 12:50:26;;;;;;;5.87;5.57;;;23.90;21.80;;;;;;5030612;28;20422;-72
2021/07/16 12:52:56;;;;;;;5.27;4.87;;;23.10;22.70;;;;;;5019212;28;20481;-70
2021/07/16 12:55:23;;;;;;;5.27;4.90;;;22.80;23.50;;;;;;5030415;28;20480;-70